Denver, CO

7:36 AM MST on November 20, 2017 (GMT -0700)
Front Range

Weather History for KFTG - December, 2012

Change the Weather History Date:

Saturday, December 1, 2012

  Actual Average (KBKF) Record (KBKF)
Temperature  
Mean Temperature 50 °F -  
Max Temperature 64 °F 45 °F 71 °F (1998)
Min Temperature 37 °F 22 °F 10 °F (2006)
Degree Days  
Heating Degree Days 14    
Moisture  
Dew Point 27 °F    
Average Humidity 42    
Maximum Humidity 65    
Minimum Humidity 21    
Precipitation  
Precipitation 0.00 in - - ()
Sea Level Pressure  
Sea Level Pressure 29.96 in    
Wind  
Wind Speed 8 mph (WSW)    
Max Wind Speed 23 mph    
Max Gust Speed 30 mph    
Visibility 10 miles    
Events      
Averages and records for this station are not official NWS values.
T = Trace of Precipitation, MM = Missing Value Source: NWS Daily Summary

Daily Weather History Graph

Daily Weather History Graph

Search for Another Location

Airport or City:

Trip Planner

Search our weather history database for the weather conditions in past years. The results will help you decide how hot, cold, wet, or windy it might be!

Date:

Astronomy

Dec. 01, 2012 Rise Set
Actual Time 7:00 AM MST 4:33 PM MST
Civil Twilight 6:30 AM MST 5:03 PM MST
Nautical Twilight 5:57 AM MST 5:37 PM MST
Astronomical Twilight 5:24 AM MST 6:09 PM MST
Moon 7:26 PM MST (12/1) 9:15 AM MST (12/1)
Length of Visible Light 10h 33m
Length of Day
9h 33m
Waning Gibbous, 91% of the Moon is Illuminated
Dec 1
Waning Gibbous
Dec 6
Last Quarter
Dec 13
New
Dec 19
First Quarter
Dec 28
Full

Hourly Weather History & Observations

Time (MST) Temp. Windchill Dew Point Humidity Pressure Visibility Wind Dir Wind Speed Gust Speed Precip Events Conditions
12:00 AM 41.0 °F 34.7 °F 26.6 °F 57% 29.86 in 10.0 mi WSW 10.4 mph - N/A   Clear
12:20 AM 44.6 °F 40.2 °F 24.8 °F 46% 29.86 in 10.0 mi WSW 8.1 mph - N/A   Scattered Clouds
12:41 AM 44.6 °F 39.2 °F 24.8 °F 46% 29.84 in 10.0 mi SSW 10.4 mph - N/A   Scattered Clouds
1:01 AM 37.4 °F 31.4 °F 26.6 °F 65% 29.85 in 10.0 mi West 8.1 mph - N/A   Clear
1:21 AM 37.4 °F - 24.8 °F 60% 29.85 in 10.0 mi Calm Calm - N/A   Clear
2:00 AM 39.2 °F 33.6 °F 26.6 °F 61% 29.87 in 10.0 mi SSW 8.1 mph - N/A   Clear
2:21 AM 42.8 °F 38.6 °F 26.6 °F 53% 29.87 in 10.0 mi SSW 6.9 mph - N/A   Scattered Clouds
2:41 AM 44.6 °F 42.2 °F 26.6 °F 49% 29.88 in 10.0 mi West 4.6 mph - N/A   Mostly Cloudy
3:01 AM 41.0 °F 39.0 °F 26.6 °F 57% 29.87 in 10.0 mi West 3.5 mph - N/A   Mostly Cloudy
3:21 AM 44.6 °F 41.4 °F 26.6 °F 49% 29.88 in 10.0 mi SW 5.8 mph - N/A   Mostly Cloudy
3:41 AM 41.0 °F 38.0 °F 26.6 °F 57% 29.89 in 10.0 mi North 4.6 mph - N/A   Mostly Cloudy
4:00 AM 42.8 °F - 26.6 °F 53% 29.89 in 10.0 mi Calm Calm - N/A   Mostly Cloudy
4:20 AM 42.8 °F 39.3 °F 26.6 °F 53% 29.90 in 10.0 mi WSW 5.8 mph - N/A   Mostly Cloudy
5:41 AM 46.4 °F 45.2 °F 26.6 °F 46% 29.92 in 10.0 mi West 3.5 mph - N/A   Clear
6:00 AM 46.4 °F 43.5 °F 26.6 °F 46% 29.92 in 10.0 mi WNW 5.8 mph - N/A   Clear
6:20 AM 46.4 °F 43.5 °F 26.6 °F 46% 29.92 in 10.0 mi West 5.8 mph - N/A   Clear
6:41 AM 44.6 °F 38.8 °F 28.4 °F 53% 29.93 in 10.0 mi WSW 11.5 mph - N/A   Clear
7:01 AM 42.8 °F 37.0 °F 28.4 °F 57% 29.95 in 10.0 mi West 10.4 mph - N/A   Clear
7:21 AM 41.0 °F 39.0 °F 28.4 °F 61% 29.96 in 10.0 mi West 3.5 mph - N/A   Clear
7:41 AM 41.0 °F 39.0 °F 28.4 °F 61% 29.97 in 10.0 mi East 3.5 mph - N/A   Clear
8:01 AM 44.6 °F - 28.4 °F 53% 29.97 in 10.0 mi Calm Calm - N/A   Clear
8:21 AM 46.4 °F 42.4 °F 30.2 °F 53% 29.96 in 10.0 mi WSW 8.1 mph - N/A   Clear
8:41 AM 51.8 °F - 30.2 °F 44% 29.96 in 10.0 mi WSW 5.8 mph - N/A   Clear
8:47 AM 55.4 °F - 28.4 °F 36% 29.96 in 50.0 mi West 5.8 mph - N/A   Scattered Clouds
9:01 AM 53.6 °F - 32.0 °F 44% 29.97 in 10.0 mi West 4.6 mph - N/A   Clear
9:21 AM 57.2 °F - 30.2 °F 36% 29.98 in 10.0 mi NNW 6.9 mph - N/A   Clear
9:41 AM 59.0 °F - 28.4 °F 31% 29.97 in 10.0 mi WNW 8.1 mph - N/A   Clear
9:47 AM 60.8 °F - 28.4 °F 29% 29.98 in 50.0 mi West 8.1 mph - N/A   Mostly Cloudy
10:21 AM 60.8 °F - 28.4 °F 29% 29.97 in 10.0 mi NW 8.1 mph - N/A   Clear
10:41 AM 62.6 °F - 28.4 °F 27% 29.98 in 10.0 mi West 8.1 mph - N/A   Clear
10:50 AM 62.6 °F - 26.6 °F 26% 29.97 in 50.0 mi SW 9.2 mph - N/A   Mostly Cloudy
11:01 AM 62.6 °F - 28.4 °F 27% 29.97 in 10.0 mi WSW 8.1 mph - N/A   Clear
11:21 AM 62.6 °F - 28.4 °F 27% 29.97 in 10.0 mi WSW 10.4 mph - N/A   Clear
11:41 AM 64.4 °F - 26.6 °F 24% 29.96 in 10.0 mi West 17.3 mph 26.5 mph N/A   Clear
11:50 AM 64.4 °F - 24.8 °F 22% 29.95 in 50.0 mi West 23.0 mph 29.9 mph N/A   Mostly Cloudy
12:01 PM 62.6 °F - 24.8 °F 24% 29.95 in 10.0 mi West 20.7 mph 27.6 mph N/A   Clear
12:21 PM 64.4 °F - 24.8 °F 22% 29.95 in 10.0 mi WNW 16.1 mph 23.0 mph N/A   Clear
12:41 PM 64.4 °F - 24.8 °F 22% 29.95 in 10.0 mi WNW 16.1 mph - N/A   Clear
12:48 PM 64.4 °F - 24.8 °F 22% 29.94 in 50.0 mi West 16.1 mph - N/A   Mostly Cloudy
1:01 PM 64.4 °F - 24.8 °F 22% 29.95 in 10.0 mi WNW 16.1 mph 23.0 mph N/A   Clear
1:21 PM 64.4 °F - 24.8 °F 22% 29.95 in 10.0 mi West 13.8 mph 18.4 mph N/A   Clear
1:41 PM 64.4 °F - 24.8 °F 22% 29.95 in 10.0 mi NW 9.2 mph 12.7 mph N/A   Clear
2:01 PM 64.4 °F - 23.0 °F 21% 29.95 in 10.0 mi WNW 13.8 mph - N/A   Clear
2:21 PM 64.4 °F - 24.8 °F 22% 29.95 in 10.0 mi NW 12.7 mph - N/A   Clear
2:41 PM 62.6 °F - 24.8 °F 24% 29.95 in 10.0 mi NW 8.1 mph - N/A   Clear
2:57 PM 64.4 °F - 24.8 °F 22% 29.96 in 50.0 mi North 6.9 mph - N/A   Mostly Cloudy
3:01 PM 62.6 °F - 24.8 °F 24% 29.96 in 10.0 mi North 6.9 mph - N/A   Clear
3:21 PM 64.4 °F - 24.8 °F 22% 29.96 in 10.0 mi NNE 8.1 mph - N/A   Clear
3:41 PM 62.6 °F - 26.6 °F 26% 29.96 in 10.0 mi NNE 6.9 mph - N/A   Clear
3:47 PM 62.6 °F - 26.6 °F 26% 29.96 in 50.0 mi North 5.8 mph - N/A   Mostly Cloudy
4:01 PM 60.8 °F - 26.6 °F 27% 29.96 in 10.0 mi NNE 5.8 mph - N/A   Clear
4:21 PM 59.0 °F - 28.4 °F 31% 29.96 in 10.0 mi NNE 5.8 mph - N/A   Clear
4:48 PM 53.6 °F - 26.6 °F 35% 29.98 in 50.0 mi ESE 5.8 mph - N/A   Mostly Cloudy
5:01 PM 53.6 °F - 26.6 °F 35% 29.99 in 10.0 mi SE 8.1 mph - N/A   Clear
5:21 PM 46.4 °F 41.9 °F 26.6 °F 46% 29.99 in 10.0 mi SSE 9.2 mph - N/A   Clear
5:41 PM 46.4 °F 41.5 °F 28.4 °F 50% 29.99 in 10.0 mi ESE 10.4 mph - N/A   Clear
6:00 PM 42.8 °F 37.0 °F 28.4 °F 57% 30.00 in 10.0 mi SE 10.4 mph - N/A   Clear
6:21 PM 42.8 °F 38.0 °F 28.4 °F 57% 30.00 in 10.0 mi SSE 8.1 mph - N/A   Clear
6:41 PM 44.6 °F 40.2 °F 28.4 °F 53% 30.01 in 10.0 mi SSE 8.1 mph - N/A   Clear
6:52 PM 44.6 °F 39.7 °F 26.6 °F 49% 30.01 in 20.0 mi SSE 9.2 mph - N/A   Mostly Cloudy
7:01 PM 42.8 °F 37.5 °F 28.4 °F 57% 30.01 in 10.0 mi SSE 9.2 mph - N/A   Clear
7:21 PM 44.6 °F 39.7 °F 28.4 °F 53% 30.02 in 10.0 mi SSE 9.2 mph - N/A   Clear
7:41 PM 42.8 °F 37.5 °F 28.4 °F 57% 30.02 in 10.0 mi SSE 9.2 mph - N/A   Clear
7:55 PM 42.8 °F 36.6 °F 26.6 °F 53% 30.03 in 20.0 mi SSE 11.5 mph - N/A   Mostly Cloudy
8:01 PM 42.8 °F 37.0 °F 28.4 °F 57% 30.03 in 10.0 mi SSE 10.4 mph - N/A   Clear
8:21 PM 42.8 °F 38.6 °F 28.4 °F 57% 30.03 in 10.0 mi SSE 6.9 mph - N/A   Clear
8:40 PM 41.0 °F 35.8 °F 28.4 °F 61% 30.02 in 10.0 mi South 8.1 mph - N/A   Clear
9:00 PM 41.0 °F 36.4 °F 28.4 °F 61% 30.02 in 10.0 mi South 6.9 mph - N/A   Clear
9:20 PM 44.6 °F 40.7 °F 28.4 °F 53% 30.02 in 10.0 mi South 6.9 mph - N/A   Clear
9:40 PM 42.8 °F 39.3 °F 26.6 °F 53% 30.01 in 10.0 mi WSW 5.8 mph - N/A   Clear
9:59 PM 42.8 °F 39.3 °F 26.6 °F 53% 30.02 in 10.0 mi WSW 5.8 mph - N/A   Clear
10:21 PM 44.6 °F 38.8 °F 26.6 °F 49% 30.01 in 10.0 mi SW 11.5 mph - N/A   Clear
10:41 PM 44.6 °F 38.8 °F 26.6 °F 49% 30.01 in 10.0 mi SW 11.5 mph - N/A   Clear
11:01 PM 42.8 °F 36.6 °F 26.6 °F 53% 30.01 in 10.0 mi SSW 11.5 mph - N/A   Clear
11:21 PM 46.4 °F 41.1 °F 24.8 °F 43% 30.01 in 10.0 mi SW 11.5 mph - N/A   Clear
11:41 PM 46.4 °F 41.5 °F 24.8 °F 43% 30.01 in 10.0 mi SSW 10.4 mph - N/A   Clear